Time;durP1;ratioP1;P1;durP2;ratioP2;P2;SDS_P1;SDS_P2;PMS_P1;PMS_P2;Temp;Humidity;BMP_temperature;BMP_pressure;BME280_temperature;BME280_humidity;BME280_pressure;Samples;Min_cycle;Max_cycle;Signal;HPM_P1;HPM_P2
2022/12/16 00:01:51;;;;;;;119.50;60.30;;;;;;;-2.88;100.00;95849.15;105500;1292;25361;-79
2022/12/16 00:04:20;;;;;;;121.00;60.80;;;;;;;-2.87;100.00;95847.10;105530;1302;22504;-79
2022/12/16 00:06:48;;;;;;;124.40;61.50;;;;;;;-2.84;100.00;95850.90;104603;1302;1289390;-79
2022/12/16 00:09:17;;;;;;;120.70;60.20;;;;;;;-2.83;100.00;95849.50;105494;1302;39001;-79
2022/12/16 00:11:46;;;;;;;117.70;59.30;;;;;;;-2.82;100.00;95851.05;105456;1293;22474;-79
2022/12/16 00:14:14;;;;;;;113.90;60.70;;;;;;;-2.80;100.00;95850.65;105510;1302;22957;-79
2022/12/16 00:16:43;;;;;;;102.20;54.10;;;;;;;-2.77;100.00;95864.98;105465;1303;22541;-79
2022/12/16 00:19:11;;;;;;;107.30;55.30;;;;;;;-2.80;100.00;95863.27;105535;1293;24347;-79
2022/12/16 00:21:39;;;;;;;91.60;49.80;;;;;;;-2.83;100.00;95861.02;105522;1282;23756;-79
2022/12/16 00:24:08;;;;;;;97.10;49.00;;;;;;;-2.85;100.00;95856.02;105529;1281;22462;-79
2022/12/16 00:26:37;;;;;;;95.60;48.80;;;;;;;-2.93;100.00;95855.27;105481;1302;22497;-78
2022/12/16 00:29:05;;;;;;;101.70;50.20;;;;;;;-3.00;100.00;95859.29;105461;1303;24361;-79
2022/12/16 00:31:33;;;;;;;90.00;46.90;;;;;;;-3.04;100.00;95863.16;105456;1298;22496;-79
2022/12/16 00:34:02;;;;;;;96.90;50.50;;;;;;;-3.07;100.00;95872.16;105517;1296;22472;-79
2022/12/16 00:36:30;;;;;;;99.60;49.10;;;;;;;-3.08;100.00;95876.68;105535;1287;22516;-79
2022/12/16 00:38:59;;;;;;;93.70;48.70;;;;;;;-3.10;100.00;95877.79;105463;1291;22342;-79
2022/12/16 00:41:27;;;;;;;98.50;50.40;;;;;;;-3.12;100.00;95883.02;105461;1290;24813;-79
2022/12/16 00:43:55;;;;;;;101.20;51.00;;;;;;;-3.13;100.00;95885.00;105543;1302;22531;-79
2022/12/16 00:46:27;;;;;;;109.10;53.50;;;;;;;-3.15;100.00;95879.50;105461;1290;25401;-79
2022/12/16 00:48:55;;;;;;;98.80;49.50;;;;;;;-3.14;100.00;95868.73;105517;1302;22516;-79
2022/12/16 00:51:24;;;;;;;95.30;50.80;;;;;;;-3.15;100.00;95859.89;105527;1303;30145;-79
2022/12/16 00:53:52;;;;;;;92.20;47.60;;;;;;;-3.15;100.00;95861.23;105686;1298;23815;-79
2022/12/16 00:56:20;;;;;;;91.90;48.80;;;;;;;-3.16;100.00;95857.34;105808;1295;23706;-79
2022/12/16 00:58:49;;;;;;;88.60;46.70;;;;;;;-3.18;100.00;95859.59;105681;1303;24254;-78
2022/12/16 01:01:18;;;;;;;106.00;49.40;;;;;;;-3.20;100.00;95859.54;105696;1295;24297;-79
2022/12/16 01:03:47;;;;;;;96.90;47.90;;;;;;;-3.22;100.00;95853.69;105788;1303;22477;-79
2022/12/16 01:06:17;;;;;;;97.20;48.00;;;;;;;-3.22;100.00;95856.88;105771;1303;22538;-79
2022/12/16 01:08:47;;;;;;;98.00;48.10;;;;;;;-3.25;100.00;95849.42;105765;1288;22591;-79
2022/12/16 01:11:20;;;;;;;103.00;54.30;;;;;;;-3.26;100.00;95848.30;105738;1295;22873;-79
2022/12/16 01:13:50;;;;;;;105.60;52.10;;;;;;;-3.27;100.00;95846.60;105771;1303;22498;-79
2022/12/16 01:16:19;;;;;;;93.30;48.40;;;;;;;-3.27;100.00;95843.02;105752;1303;22490;-79
2022/12/16 01:18:47;;;;;;;102.80;52.60;;;;;;;-3.27;100.00;95838.10;105728;1288;22495;-79
2022/12/16 01:21:16;;;;;;;104.60;51.30;;;;;;;-3.27;100.00;95832.25;105737;1297;23678;-79
2022/12/16 01:23:46;;;;;;;103.50;51.90;;;;;;;-3.26;100.00;95825.30;105769;1300;22905;-79
2022/12/16 01:26:17;;;;;;;98.10;47.30;;;;;;;-3.28;100.00;95817.71;105523;1303;22568;-79
2022/12/16 01:28:47;;;;;;;114.70;51.50;;;;;;;-3.28;100.00;95811.69;105696;1290;22546;-79
2022/12/16 01:31:17;;;;;;;111.90;54.30;;;;;;;-3.31;100.00;95798.60;105694;1302;26971;-79
2022/12/16 01:33:45;;;;;;;91.50;46.60;;;;;;;-3.31;100.00;95795.73;105684;1279;22504;-79
2022/12/16 01:36:14;;;;;;;105.20;51.30;;;;;;;-3.31;100.00;95791.73;105619;1303;23707;-78
2022/12/16 01:38:43;;;;;;;106.30;50.90;;;;;;;-3.31;100.00;95795.33;105416;1288;22539;-78
2022/12/16 01:41:14;;;;;;;108.30;52.40;;;;;;;-3.32;100.00;95794.14;105467;1288;25089;-78
2022/12/16 01:43:43;;;;;;;106.60;48.50;;;;;;;-3.36;100.00;95792.66;105518;1285;22566;-78
2022/12/16 01:46:19;;;;;;;116.20;55.70;;;;;;;-3.35;100.00;95793.30;105472;1272;25240;-78
2022/12/16 01:48:52;;;;;;;112.60;49.90;;;;;;;-3.36;100.00;95788.75;105383;1296;22591;-78
2022/12/16 01:51:26;;;;;;;95.40;49.50;;;;;;;-3.37;100.00;95782.63;105485;1301;23757;-78
2022/12/16 01:54:01;;;;;;;110.20;50.20;;;;;;;-3.38;100.00;95783.30;105430;1302;22570;-78
2022/12/16 01:56:33;;;;;;;98.40;48.10;;;;;;;-3.36;100.00;95785.53;105533;1277;25407;-78
2022/12/16 01:59:02;;;;;;;106.90;50.00;;;;;;;-3.33;100.00;95784.74;105716;1297;22541;-78
2022/12/16 02:01:30;;;;;;;104.90;50.00;;;;;;;-3.30;100.00;95791.73;105491;1296;25103;-78
2022/12/16 02:04:03;;;;;;;104.40;48.70;;;;;;;-3.28;100.00;95788.92;105475;1282;22631;-79
2022/12/16 02:06:32;;;;;;;106.60;47.60;;;;;;;-3.27;100.00;95787.55;105571;1297;22467;-79
2022/12/16 02:09:05;;;;;;;115.10;50.80;;;;;;;-3.27;100.00;95784.72;105516;1285;26132;-79
2022/12/16 02:12:08;;;;;;;109.10;48.70;;;;;;;-3.26;100.00;95780.08;105469;1286;26897;-78
2022/12/16 02:14:56;;;;;;;95.20;47.10;;;;;;;-3.28;100.00;95778.35;105589;1302;24373;-79
2022/12/16 02:17:34;;;;;;;104.50;46.20;;;;;;;-3.33;100.00;95773.98;105608;1289;22468;-79
2022/12/16 02:20:34;;;;;;;102.00;48.50;;;;;;;-3.35;100.00;95774.88;105613;1302;22498;-79
2022/12/16 02:23:32;;;;;;;105.10;50.20;;;;;;;-3.35;100.00;95768.26;105741;1282;26448;-79
2022/12/16 02:26:22;;;;;;;98.30;46.90;;;;;;;-3.36;100.00;95766.05;105698;1286;22603;-79
2022/12/16 02:29:08;;;;;;;;;;;;;;;-3.37;100.00;95759.42;105651;1282;24294;-79
2022/12/16 02:31:44;;;;;;;93.30;44.60;;;;;;;-3.40;100.00;95759.30;105688;1286;28879;-79
2022/12/16 02:34:23;;;;;;;95.20;48.80;;;;;;;-3.43;100.00;95758.45;105805;1288;23153;-79
2022/12/16 02:37:03;;;;;;;99.90;49.00;;;;;;;-3.43;100.00;95745.55;105781;1304;22557;-79
2022/12/16 02:39:39;;;;;;;87.20;44.70;;;;;;;-3.42;100.00;95734.81;105591;1297;37499;-79
2022/12/16 02:42:16;;;;;;;87.10;43.20;;;;;;;-3.41;100.00;95726.42;105592;1303;26523;-79
2022/12/16 02:44:54;;;;;;;91.60;48.00;;;;;;;-3.41;100.00;95723.89;105669;1303;22471;-79
2022/12/16 02:47:24;;;;;;;90.70;44.40;;;;;;;-3.42;100.00;95714.96;105666;1279;22484;-79
2022/12/16 02:49:54;;;;;;;94.00;47.80;;;;;;;-3.41;100.00;95710.20;105737;1285;22528;-79
2022/12/16 02:52:25;;;;;;;81.70;42.60;;;;;;;-3.40;100.00;95711.63;105743;1285;24654;-79
2022/12/16 02:54:58;;;;;;;86.50;45.30;;;;;;;-3.40;100.00;95706.62;105655;1301;22939;-79
2022/12/16 02:57:49;;;;;;;82.10;42.50;;;;;;;-3.40;100.00;95698.67;105555;1282;22460;-78
2022/12/16 03:00:20;;;;;;;89.10;43.10;;;;;;;-3.40;100.00;95694.77;105580;1303;23844;-78
2022/12/16 03:02:58;;;;;;;80.60;40.60;;;;;;;-3.40;100.00;95694.45;105730;1286;22477;-79
2022/12/16 03:05:32;;;;;;;79.60;43.30;;;;;;;-3.41;100.00;95694.27;105607;1288;22535;-79
2022/12/16 03:08:04;;;;;;;81.80;43.70;;;;;;;-3.42;100.00;95692.00;105767;1279;22472;-79
2022/12/16 03:10:38;;;;;;;75.70;43.70;;;;;;;-3.41;100.00;95694.15;105736;1288;22516;-79
2022/12/16 03:13:10;;;;;;;80.20;43.10;;;;;;;-3.39;100.00;95694.89;105758;1286;24316;-79
2022/12/16 03:15:40;;;;;;;91.20;46.60;;;;;;;-3.37;100.00;95692.38;105754;1279;23198;-79
2022/12/16 03:18:11;;;;;;;87.50;45.40;;;;;;;-3.36;100.00;95696.91;105668;1285;22465;-79
2022/12/16 03:20:45;;;;;;;88.00;44.00;;;;;;;-3.33;100.00;95693.60;105729;1285;27852;-79
2022/12/16 03:23:20;;;;;;;81.70;44.00;;;;;;;-3.30;100.00;95688.38;105769;1303;22472;-79
2022/12/16 03:25:50;;;;;;;83.30;43.10;;;;;;;-3.27;100.00;95681.41;105802;1289;22490;-79
2022/12/16 03:28:34;;;;;;;80.50;41.30;;;;;;;-3.25;100.00;95677.33;105765;1288;22523;-79
2022/12/16 03:31:12;;;;;;;75.90;42.60;;;;;;;-3.24;100.00;95673.14;105692;1285;26068;-79
2022/12/16 03:33:47;;;;;;;77.00;44.40;;;;;;;-3.26;100.00;95669.25;105570;1288;24256;-79
2022/12/16 03:36:20;;;;;;;76.70;43.40;;;;;;;-3.26;100.00;95662.31;105773;1281;22465;-79
2022/12/16 03:38:50;;;;;;;79.60;44.20;;;;;;;-3.25;100.00;95653.77;105766;1304;22465;-79
2022/12/16 03:41:19;;;;;;;;;;;;;;;-3.25;100.00;95646.42;105759;1282;25098;-78
2022/12/16 03:43:49;;;;;;;75.60;41.40;;;;;;;-3.25;100.00;95644.08;105704;1298;22508;-79
2022/12/16 03:46:19;;;;;;;79.70;42.00;;;;;;;-3.24;100.00;95636.97;105550;1303;25224;-79
2022/12/16 03:48:50;;;;;;;74.80;43.90;;;;;;;-3.22;100.00;95631.18;105674;1279;22492;-79
2022/12/16 03:51:20;;;;;;;79.80;42.30;;;;;;;-3.20;100.00;95627.73;105658;1303;27144;-79
2022/12/16 03:53:48;;;;;;;75.90;42.70;;;;;;;-3.18;100.00;95618.24;105797;1287;24237;-79
2022/12/16 03:56:16;;;;;;;77.80;43.30;;;;;;;-3.15;100.00;95615.30;105637;1303;25253;-79
2022/12/16 03:58:45;;;;;;;81.60;44.00;;;;;;;-3.13;100.00;95605.34;105637;1302;25393;-79
2022/12/16 04:01:14;;;;;;;73.20;41.60;;;;;;;-3.14;100.00;95604.24;105719;1304;24363;-79
2022/12/16 04:03:43;;;;;;;81.50;43.50;;;;;;;-3.15;100.00;95597.20;105804;1288;22472;-79
2022/12/16 04:06:11;;;;;;;78.30;42.60;;;;;;;-3.16;100.00;95593.10;105783;1303;22693;-79
2022/12/16 04:08:39;;;;;;;79.60;45.30;;;;;;;-3.17;100.00;95585.66;105795;1286;22473;-79
2022/12/16 04:25:14;;;;;;;82.90;45.90;;;;;;;-3.21;100.00;95557.96;105756;1294;25348;-79
2022/12/16 04:27:45;;;;;;;80.90;44.70;;;;;;;-3.22;100.00;95559.34;105753;1301;22832;-79
2022/12/16 04:30:20;;;;;;;77.40;42.60;;;;;;;-3.23;100.00;95546.06;105741;1297;24919;-79
